Thunder radar more information blitzortung!


Radar de pluja more information rain snow radar


Visita la nostra xarxa de llocs de meteo:

Template documentation
and downloads

And another site



No particular awareness of the weather is required.    There are no Weather-warnings

Pagina Historial Weather Underground text

Diari Resum Setembre 13, 2017 Unitats:  Imperial    Mètric   Tant
« Previous Dia
SegĂźent Dia »
Diari Setmana Mensual Anual Personalitzada
  Maxima: Minima: Media:
Temperatura: TemperatureC °F 15.8 °F 23.6 °F
Punt de rosada: DewpointC °F 11.9 °F 13.9 °F
Humitat: Humidity % 36 % 57 %
Wind Speed: WindSpeedKMH mph 0.0 mph 9.5 mph
RĂ fegues de vent: WindSpeedGustKMH mph - -
Vent:- - SW
Pression baro: PressurehPa in 1017.8 in -
Precipitacions: 0.0 in    
Historical Graphs
 
 
Dades de taula per Setembre 13, 2017
Temps Temperatura Punt de rosada Pression baro Vent Wind Speed RĂ fegues de vent Humitat Rainfall Rate (Hourly)
TemperatureC °F DewpointC °F PressurehPa in Calm     Humidity % HourlyPrecipMM in
00:00 16.7 °F 13.8 °F 1019.9 in Calm   1.6 mph 83 % 0.0 in
00:01 18.5 °F 14.0 °F 1019.9 in Calm     75 % 0.0 in
00:10 16.6 °F 13.7 °F 1019.9 in Calm     83 % 0.0 in
00:20 16.3 °F 13.4 °F 1019.9 in SSE 1.6 mph 1.6 mph 83 % 0.0 in
00:30 16.2 °F 13.3 °F 1019.9 in Calm   1.6 mph 83 % 0.0 in
00:40 16.1 °F 13.4 °F 1019.9 in Calm     84 % 0.0 in
00:50 16.0 °F 13.3 °F 1019.9 in Calm     84 % 0.0 in
01:00 16.0 °F 13.3 °F 1019.9 in SW 1.6 mph 1.6 mph 84 % 0.0 in
01:10 16.0 °F 13.3 °F 1019.9 in Calm   1.6 mph 84 % 0.0 in
01:20 16.0 °F 13.5 °F 1019.9 in Calm     85 % 0.0 in
01:30 16.0 °F 13.5 °F 1019.9 in Calm     85 % 0.0 in
01:40 15.8 °F 13.3 °F 1019.9 in Calm     85 % 0.0 in
01:50 15.8 °F 13.3 °F 1019.9 in Calm     85 % 0.0 in
02:00 15.9 °F 13.4 °F 1019.9 in Calm   3.2 mph 85 % 0.0 in
02:10 16.0 °F 13.5 °F 1019.9 in Calm   3.2 mph 85 % 0.0 in
02:20 16.1 °F 13.6 °F 1019.9 in WSW 1.6 mph 3.2 mph 85 % 0.0 in
02:30 16.1 °F 13.6 °F 1018.8 in SW 3.2 mph 4.8 mph 85 % 0.0 in
02:40 16.1 °F 13.6 °F 1019.9 in SW 3.2 mph 3.2 mph 85 % 0.0 in
02:50 16.1 °F 13.6 °F 1019.9 in SW 1.6 mph 4.8 mph 85 % 0.0 in
03:00 16.0 °F 13.7 °F 1019.9 in SW 1.6 mph 3.2 mph 86 % 0.0 in
03:10 16.2 °F 13.8 °F 1019.9 in Calm   1.6 mph 86 % 0.0 in
03:20 16.2 °F 13.8 °F 1019.9 in Calm   1.6 mph 86 % 0.0 in
03:30 16.4 °F 14.1 °F 1020.9 in Calm     86 % 0.0 in
03:40 17.0 °F 14.7 °F 1020.9 in NNW 1.6 mph 3.2 mph 86 % 0.0 in
03:50 17.4 °F 14.5 °F 1020.9 in NNW 3.2 mph 4.8 mph 83 % 0.0 in
04:00 18.1 °F 14.8 °F 1020.9 in NNW 1.6 mph 4.8 mph 81 % 0.0 in
04:10 18.3 °F 14.6 °F 1020.9 in Calm   3.2 mph 79 % 0.0 in
04:20 18.4 °F 14.5 °F 1020.9 in WSW 1.6 mph 3.2 mph 78 % 0.0 in
04:30 18.7 °F 14.8 °F 1020.9 in SW 3.2 mph 4.8 mph 78 % 0.0 in
04:40 18.7 °F 14.8 °F 1021.9 in SW 3.2 mph 4.8 mph 78 % 0.0 in
04:50 18.9 °F 15.0 °F 1021.9 in WSW 1.6 mph 4.8 mph 78 % 0.0 in
05:00 19.5 °F 15.2 °F 1021.9 in WSW 1.6 mph 3.2 mph 76 % 0.0 in
05:10 20.3 °F 15.5 °F 1021.9 in West 3.2 mph 3.2 mph 74 % 0.0 in
05:20 21.2 °F 15.9 °F 1021.9 in Calm   4.8 mph 72 % 0.0 in
10:22 21.4 °F 15.5 °F 1021.9 in North 3.7 mph 3.7 mph 69 % 0.0 in
10:23 21.5 °F 15.6 °F 1021.9 in North 2.6 mph 2.6 mph 69 % 0.0 in
10:24 21.7 °F 15.8 °F 1021.9 in NW 1.9 mph 2.3 mph 69 % 0.0 in
10:29 21.9 °F 15.5 °F 1021.9 in NNE 4.2 mph 4.2 mph 67 % 0.0 in
10:34 22.3 °F 14.9 °F 1021.9 in NNE 5.6 mph 5.6 mph 63 % 0.0 in
10:39 22.3 °F 14.9 °F 1021.9 in WSW 3.9 mph 3.9 mph 63 % 0.0 in
10:44 22.5 °F 14.8 °F 1021.9 in SW 3.7 mph 3.7 mph 62 % 0.0 in
10:49 23.0 °F 14.8 °F 1021.9 in NE 3.7 mph 3.7 mph 60 % 0.0 in
10:54 23.3 °F 14.6 °F 1021.9 in South 5.8 mph 5.8 mph 58 % 0.0 in
10:59 23.5 °F 14.8 °F 1021.9 in NE 5.6 mph 5.6 mph 58 % 0.0 in
11:04 23.7 °F 14.9 °F 1021.9 in NNW 2.3 mph 2.3 mph 58 % 0.0 in
11:09 23.7 °F 14.1 °F 1021.9 in East 7.4 mph 7.4 mph 55 % 0.0 in
11:14 23.8 °F 14.2 °F 1021.9 in North 7.4 mph 7.4 mph 55 % 0.0 in
11:19 23.8 °F 14.2 °F 1021.9 in ENE 6.1 mph 6.1 mph 55 % 0.0 in
11:24 23.6 °F 13.4 °F 1021.9 in ESE 6.1 mph 6.1 mph 53 % 0.0 in
11:29 23.9 °F 13.7 °F 1021.9 in WNW 3.7 mph 3.7 mph 53 % 0.0 in
11:34 24.5 °F 14.3 °F 1021.9 in ESE 5.6 mph 5.6 mph 53 % 0.0 in
11:39 24.7 °F 14.2 °F 1021.9 in East 3.7 mph 3.9 mph 52 % 0.0 in
11:44 25.0 °F 14.4 °F 1021.9 in WSW 6.4 mph 6.4 mph 52 % 0.0 in
11:49 25.1 °F 13.9 °F 1021.9 in SW 3.7 mph 3.7 mph 50 % 0.0 in
11:54 24.9 °F 14.1 °F 1021.9 in West 11.1 mph 11.1 mph 51 % 0.0 in
11:59 25.2 °F 13.4 °F 1021.9 in East 9.5 mph 9.5 mph 48 % 0.0 in
12:04 24.8 °F 13.3 °F 1021.9 in South 3.7 mph 3.7 mph 49 % 0.0 in
12:09 25.6 °F 13.4 °F 1021.9 in WSW 3.9 mph 3.9 mph 47 % 0.0 in
12:14 25.7 °F 13.6 °F 1021.9 in South 6.1 mph 6.1 mph 47 % 0.0 in
12:19 25.8 °F 13.6 °F 1021.9 in SW 13.0 mph 13.0 mph 47 % 0.0 in
12:24 25.7 °F 13.6 °F 1021.9 in ENE 3.7 mph 3.7 mph 47 % 0.0 in
12:29 26.4 °F 13.8 °F 1021.9 in West 3.7 mph 3.7 mph 46 % 0.0 in
12:34 26.8 °F 14.6 °F 1021.9 in WSW 9.5 mph 9.5 mph 47 % 0.0 in
12:39 27.1 °F 14.2 °F 1021.9 in WSW 11.1 mph 11.1 mph 45 % 0.0 in
12:44 26.9 °F 13.9 °F 1021.9 in SSE 11.1 mph 11.1 mph 45 % 0.0 in
12:49 26.8 °F 13.5 °F 1021.9 in SSE 13.0 mph 13.0 mph 44 % 0.0 in
12:54 26.8 °F 13.9 °F 1021.9 in SW 9.3 mph 9.3 mph 45 % 0.0 in
12:59 27.2 °F 13.9 °F 1021.9 in SW 7.4 mph 7.4 mph 44 % 0.0 in
13:04 27.1 °F 13.4 °F 1021.9 in West 11.1 mph 11.1 mph 43 % 0.0 in
13:09 27.5 °F 13.4 °F 1021.9 in SSW 7.4 mph 7.4 mph 42 % 0.0 in
13:14 27.9 °F 14.2 °F 1021.9 in West 9.3 mph 9.3 mph 43 % 0.0 in
13:19 28.0 °F 14.3 °F 1021.9 in West 9.3 mph 9.3 mph 43 % 0.0 in
13:24 27.9 °F 13.8 °F 1020.9 in WSW 5.6 mph 5.6 mph 42 % 0.0 in
13:29 28.0 °F 13.5 °F 1020.9 in West 9.3 mph 9.3 mph 41 % 0.0 in
13:34 28.3 °F 13.8 °F 1020.9 in West 3.2 mph 3.2 mph 41 % 0.0 in
13:39 28.7 °F 13.8 °F 1020.9 in WSW 9.7 mph 9.7 mph 40 % 0.0 in
13:44 28.6 °F 14.1 °F 1020.9 in WSW 6.4 mph 6.4 mph 41 % 0.0 in
13:49 29.0 °F 13.7 °F 1020.9 in SSW 5.6 mph 5.6 mph 39 % 0.0 in
13:54 29.0 °F 13.2 °F 1020.9 in West 9.3 mph 9.3 mph 38 % 0.0 in
13:59 29.2 °F 13.4 °F 1020.9 in SW 11.1 mph 11.1 mph 38 % 0.0 in
14:04 29.1 °F 13.3 °F 1020.9 in West 16.7 mph 16.7 mph 38 % 0.0 in
14:09 28.9 °F 13.2 °F 1020.9 in SSW 16.7 mph 16.7 mph 38 % 0.0 in
14:14 29.1 °F 12.9 °F 1020.9 in SW 8.7 mph 8.7 mph 37 % 0.0 in
14:19 28.7 °F 13.0 °F 1020.9 in SSW 11.1 mph 11.1 mph 38 % 0.0 in
14:24 28.7 °F 12.6 °F 1019.9 in SW 11.1 mph 11.1 mph 37 % 0.0 in
14:29 29.1 °F 12.9 °F 1019.9 in SW 15.8 mph 15.8 mph 37 % 0.0 in
14:34 28.8 °F 12.7 °F 1019.9 in SW 9.3 mph 9.3 mph 37 % 0.0 in
14:39 28.4 °F 11.9 °F 1019.9 in SW 18.5 mph 18.5 mph 36 % 0.0 in
14:44 28.6 °F 12.1 °F 1019.9 in South 13.0 mph 13.0 mph 36 % 0.0 in
14:49 28.6 °F 12.5 °F 1019.9 in WSW 11.9 mph 11.9 mph 37 % 0.0 in
14:54 28.4 °F 11.9 °F 1019.9 in South 9.7 mph 9.7 mph 36 % 0.0 in
14:59 28.5 °F 12.0 °F 1019.9 in SW 16.7 mph 16.7 mph 36 % 0.0 in
15:04 28.4 °F 11.9 °F 1019.9 in SW 20.4 mph 20.4 mph 36 % 0.0 in
15:09 28.7 °F 12.6 °F 1018.8 in WSW 10.3 mph 10.3 mph 37 % 0.0 in
15:14 28.8 °F 12.7 °F 1018.8 in SSE 5.6 mph 5.6 mph 37 % 0.0 in
15:19 28.6 °F 12.5 °F 1018.8 in WSW 14.8 mph 14.8 mph 37 % 0.0 in
15:24 28.8 °F 12.7 °F 1019.9 in South 14.8 mph 14.8 mph 37 % 0.0 in
15:29 28.7 °F 12.6 °F 1019.9 in SSE 11.1 mph 11.1 mph 37 % 0.0 in
15:34 28.9 °F 12.7 °F 1019.9 in SSW 11.1 mph 11.1 mph 37 % 0.0 in
15:39 28.7 °F 13.0 °F 1019.9 in SW 20.4 mph 20.4 mph 38 % 0.0 in
15:44 28.7 °F 13.0 °F 1019.9 in SW 22.2 mph 22.2 mph 38 % 0.0 in
15:49 28.6 °F 12.9 °F 1019.9 in South 14.8 mph 14.8 mph 38 % 0.0 in
15:54 28.4 °F 13.1 °F 1019.9 in SW 13.0 mph 13.0 mph 39 % 0.0 in
15:59 28.5 °F 12.8 °F 1019.9 in SSE 14.8 mph 14.8 mph 38 % 0.0 in
16:04 28.4 °F 13.1 °F 1019.9 in SSW 13.0 mph 13.0 mph 39 % 0.0 in
16:09 28.2 °F 12.6 °F 1019.9 in WSW 13.0 mph 13.0 mph 38 % 0.0 in
16:14 28.3 °F 12.6 °F 1019.9 in SSW 16.7 mph 16.7 mph 38 % 0.0 in
16:19 28.2 °F 12.9 °F 1019.9 in South 14.8 mph 14.8 mph 39 % 0.0 in
16:24 28.4 °F 13.1 °F 1018.8 in SW 11.4 mph 11.4 mph 39 % 0.0 in
16:29 28.4 °F 13.1 °F 1018.8 in WSW 14.8 mph 14.8 mph 39 % 0.0 in
16:34 28.2 °F 13.3 °F 1018.8 in SSW 14.8 mph 14.8 mph 40 % 0.0 in
16:39 28.2 °F 13.3 °F 1018.8 in SW 7.4 mph 7.4 mph 40 % 0.0 in
16:44 28.7 °F 13.8 °F 1018.8 in SW 11.1 mph 11.1 mph 40 % 0.0 in
16:49 28.2 °F 13.7 °F 1018.8 in South 11.1 mph 11.1 mph 41 % 0.0 in
16:54 27.9 °F 13.4 °F 1018.8 in SW 18.5 mph 18.5 mph 41 % 0.0 in
16:59 27.9 °F 13.4 °F 1018.8 in SW 13.7 mph 13.7 mph 41 % 0.0 in
17:04 27.9 °F 13.4 °F 1018.8 in SW 16.7 mph 16.7 mph 41 % 0.0 in
17:09 27.9 °F 13.8 °F 1018.8 in WSW 24.1 mph 24.1 mph 42 % 0.0 in
17:14 27.7 °F 13.6 °F 1018.8 in WSW 13.0 mph 13.0 mph 42 % 0.0 in
17:19 27.6 °F 13.6 °F 1018.8 in South 14.8 mph 14.8 mph 42 % 0.0 in
17:24 27.7 °F 13.6 °F 1017.8 in SW 16.7 mph 16.7 mph 42 % 0.0 in
17:29 27.2 °F 13.2 °F 1017.8 in SSW 20.4 mph 20.4 mph 42 % 0.0 in
17:34 27.2 °F 13.6 °F 1017.8 in WSW 18.5 mph 18.5 mph 43 % 0.0 in
17:39 27.2 °F 13.6 °F 1017.8 in South 18.5 mph 18.5 mph 43 % 0.0 in
17:44 27.2 °F 13.6 °F 1017.8 in SW 22.2 mph 22.2 mph 43 % 0.0 in
17:49 26.9 °F 13.3 °F 1017.8 in SSW 24.1 mph 24.1 mph 43 % 0.0 in
17:54 26.8 °F 13.2 °F 1017.8 in SW 16.7 mph 16.7 mph 43 % 0.0 in
17:59 26.7 °F 13.1 °F 1017.8 in SSE 14.8 mph 14.8 mph 43 % 0.0 in
18:04 26.5 °F 12.9 °F 1017.8 in South 20.9 mph 20.9 mph 43 % 0.0 in
18:09 26.6 °F 13.0 °F 1017.8 in SW 22.2 mph 22.2 mph 43 % 0.0 in
18:14 26.4 °F 12.4 °F 1017.8 in SW 16.7 mph 16.7 mph 42 % 0.0 in
18:19 26.4 °F 12.4 °F 1017.8 in SSW 13.0 mph 13.0 mph 42 % 0.0 in
18:24 26.1 °F 12.6 °F 1017.8 in WSW 18.5 mph 18.5 mph 43 % 0.0 in
18:29 26.0 °F 12.4 °F 1017.8 in SW 16.7 mph 16.7 mph 43 % 0.0 in
18:34 25.8 °F 12.3 °F 1017.8 in South 18.5 mph 18.5 mph 43 % 0.0 in
18:39 25.9 °F 12.3 °F 1017.8 in West 14.0 mph 14.0 mph 43 % 0.0 in
18:44 25.8 °F 12.3 °F 1017.8 in SSW 16.7 mph 16.7 mph 43 % 0.0 in
18:49 25.7 °F 12.6 °F 1017.8 in SW 14.8 mph 14.8 mph 44 % 0.0 in
18:54 25.5 °F 12.3 °F 1017.8 in WSW 13.0 mph 13.0 mph 44 % 0.0 in
18:59 25.4 °F 12.6 °F 1017.8 in SW 18.5 mph 18.5 mph 45 % 0.0 in
19:04 25.2 °F 12.8 °F 1017.8 in WSW 27.8 mph 27.8 mph 46 % 0.0 in
19:09 24.9 °F 13.1 °F 1017.8 in SW 18.5 mph 18.5 mph 48 % 0.0 in
19:14 24.6 °F 13.2 °F 1017.8 in SW 9.5 mph 13.0 mph 49 % 0.0 in
19:19 24.5 °F 13.1 °F 1017.8 in SW 16.7 mph 16.7 mph 49 % 0.0 in
19:24 24.5 °F 13.4 °F 1017.8 in WSW 14.8 mph 14.8 mph 50 % 0.0 in
19:29 24.2 °F 13.7 °F 1017.8 in WSW 20.4 mph 20.4 mph 52 % 0.0 in
19:34 24.0 °F 13.8 °F 1017.8 in SSE 18.5 mph 18.5 mph 53 % 0.0 in
19:39 23.9 °F 14.0 °F 1017.8 in SW 20.4 mph 20.4 mph 54 % 0.0 in
19:44 23.7 °F 14.1 °F 1017.8 in West 18.5 mph 18.5 mph 55 % 0.0 in
19:49 23.6 °F 14.1 °F 1017.8 in WSW 22.2 mph 22.2 mph 55 % 0.0 in
19:54 23.5 °F 13.9 °F 1017.8 in SW 13.0 mph 13.0 mph 55 % 0.0 in
19:59 23.2 °F 14.5 °F 1017.8 in SW 20.4 mph 20.4 mph 58 % 0.0 in
20:04 23.1 °F 14.4 °F 1017.8 in WSW 13.0 mph 13.0 mph 58 % 0.0 in
20:09 23.0 °F 14.3 °F 1017.8 in SW 11.1 mph 11.1 mph 58 % 0.0 in
20:14 22.9 °F 14.4 °F 1017.8 in SSW 16.7 mph 16.7 mph 59 % 0.0 in
20:19 22.8 °F 14.4 °F 1017.8 in SSW 14.8 mph 14.8 mph 59 % 0.0 in
20:24 22.7 °F 14.3 °F 1017.8 in SSW 16.7 mph 16.7 mph 59 % 0.0 in
20:29 22.6 °F 14.2 °F 1017.8 in SW 9.7 mph 10.0 mph 59 % 0.0 in
20:34 22.5 °F 14.3 °F 1017.8 in SW 11.1 mph 11.1 mph 60 % 0.0 in
20:39 22.4 °F 14.3 °F 1017.8 in WSW 14.8 mph 14.8 mph 60 % 0.0 in
20:44 22.4 °F 14.5 °F 1017.8 in WSW 13.0 mph 13.0 mph 61 % 0.0 in
20:49 22.3 °F 14.4 °F 1017.8 in WSW 14.8 mph 14.8 mph 61 % 0.0 in
20:54 22.2 °F 14.3 °F 1018.8 in SSW 11.1 mph 11.1 mph 61 % 0.0 in
20:59 22.1 °F 14.5 °F 1018.8 in SW 16.7 mph 16.7 mph 62 % 0.0 in
21:04 22.1 °F 14.5 °F 1018.8 in SW 14.8 mph 14.8 mph 62 % 0.0 in
21:09 22.0 °F 14.4 °F 1018.8 in SW 9.3 mph 9.3 mph 62 % 0.0 in
21:14 21.9 °F 14.6 °F 1018.8 in SW 14.0 mph 14.0 mph 63 % 0.0 in
21:19 21.8 °F 14.7 °F 1018.8 in SW 9.3 mph 9.3 mph 64 % 0.0 in
21:24 21.8 °F 14.9 °F 1018.8 in SW 16.7 mph 16.7 mph 65 % 0.0 in
21:29 21.7 °F 14.8 °F 1018.8 in SW 9.3 mph 9.3 mph 65 % 0.0 in
21:34 21.7 °F 15.1 °F 1018.8 in SW 6.1 mph 6.1 mph 66 % 0.0 in
21:39 21.6 °F 15.0 °F 1018.8 in SW 7.4 mph 7.4 mph 66 % 0.0 in
21:44 21.5 °F 14.9 °F 1018.8 in SW 7.4 mph 7.4 mph 66 % 0.0 in
21:49 21.5 °F 15.1 °F 1018.8 in SSW 11.1 mph 11.1 mph 67 % 0.0 in
21:54 21.4 °F 15.2 °F 1018.8 in SW 11.1 mph 11.1 mph 68 % 0.0 in
21:59 21.4 °F 15.5 °F 1018.8 in SW 7.4 mph 7.4 mph 69 % 0.0 in
22:04 21.4 °F 15.5 °F 1018.8 in SSW 9.3 mph 9.3 mph 69 % 0.0 in
22:09 21.3 °F 15.6 °F 1018.8 in SSW 9.3 mph 9.3 mph 70 % 0.0 in
22:14 21.2 °F 15.7 °F 1018.8 in SW 7.4 mph 7.4 mph 71 % 0.0 in
22:19 21.3 °F 15.8 °F 1018.8 in WSW 9.3 mph 9.3 mph 71 % 0.0 in
22:24 21.2 °F 15.9 °F 1018.8 in WSW 7.4 mph 7.4 mph 72 % 0.0 in
22:29 21.2 °F 15.9 °F 1018.8 in SW 7.4 mph 7.4 mph 72 % 0.0 in
22:34 21.1 °F 15.8 °F 1018.8 in SSW 7.4 mph 7.4 mph 72 % 0.0 in
22:39 21.1 °F 15.8 °F 1018.8 in SW 7.4 mph 7.4 mph 72 % 0.0 in
22:44 21.1 °F 16.1 °F 1018.8 in WSW 5.8 mph 5.8 mph 73 % 0.0 in
22:49 21.1 °F 16.1 °F 1018.8 in West 9.3 mph 9.3 mph 73 % 0.0 in
22:54 21.0 °F 16.0 °F 1018.8 in WSW 5.8 mph 5.8 mph 73 % 0.0 in
22:59 21.0 °F 16.0 °F 1018.8 in SW 5.6 mph 5.6 mph 73 % 0.0 in
23:04 21.0 °F 16.2 °F 1018.8 in West 3.7 mph 3.7 mph 74 % 0.0 in
23:09 21.0 °F 16.2 °F 1018.8 in WSW 6.4 mph 6.4 mph 74 % 0.0 in
23:14 21.0 °F 16.2 °F 1018.8 in WSW 3.7 mph 3.7 mph 74 % 0.0 in
23:19 20.9 °F 16.1 °F 1018.8 in WSW 5.3 mph 5.3 mph 74 % 0.0 in
23:24 20.9 °F 16.1 °F 1018.8 in West 5.6 mph 5.6 mph 74 % 0.0 in
23:29 20.8 °F 16.2 °F 1018.8 in SW 3.7 mph 3.7 mph 75 % 0.0 in
23:34 20.8 °F 16.2 °F 1018.8 in WSW 7.4 mph 7.4 mph 75 % 0.0 in
23:39 20.7 °F 16.3 °F 1018.8 in SSW 3.9 mph 3.9 mph 76 % 0.0 in
23:44 20.7 °F 16.3 °F 1018.8 in West 7.4 mph 7.4 mph 76 % 0.0 in
23:49 20.6 °F 16.4 °F 1018.8 in WSW 5.0 mph 5.0 mph 77 % 0.0 in
23:54 20.6 °F 16.2 °F 1017.8 in WSW 3.7 mph 3.7 mph 76 % 0.0 in
23:59 20.6 °F 16.4 °F 1017.8 in WSW 5.6 mph 5.6 mph 77 % 0.0 in
Meteo Sesrovires
Elogis d' Weather Underground - 1.5 mb

Guio original per  Jim McMurry - jmcmurry@mwt.net Adaptat per a la plantilla per  Wim van der Kuil - Leuven-Template.eu

Trobareu la nostra informacio del temps tambe a:

Weather Underground

AWEKAS